Pagrindinis puslapis
METAR-TAF:

METAR-TAF

Oro uostai :

Stambulas Atatiurkas, Turkija

platuma: 40-58N, ilguma: 028-49E, Aukštis: 48 m

Dabartinis oras

Ataskaita buvo paskelbta 31 minutes, ne 04:50 UTC
Vėjas 6 kt iš Šiaurės Rytų
Temperatūra 7°C
Drėgmė 76%
Slėgis 1028 hPa
Matomumas 10 km arba daugiau
nėra debesų žemiau 1500 m ir nėra kamuolinių lietaus debesų

METAR: LTBA 060450Z 05006KT CAVOK 07/03 Q1028 NOSIG RMK RWY17L 05004KT RWY05 03007KT RWY23 06007KT

Laikas: 08:21 (05:21 UTC)

Prognozė

Ataskaita buvo paskelbta 6 valandos ir 41 minutes, ne 22:40 UTC
Prognozė galioja nuo 06 metu 00 UTC su 07 metu 06 UTC
Vėjas 5 kt iš Šiaurės Rytų
Matomumas 10 km arba daugiau
nėra debesų žemiau 1500 m ir nėra kamuolinių lietaus debesų
Tapsmas
nuo 07 metu 04 UTC su 07 metu 06 UTC
Vėjas 12 kt iš Pietų/Pietvakarių

TAF: LTBA 052240Z 0600/0706 04005KT CAVOK BECMG 0704/0706 20012KT

Orai ataskaitas ir orų prognozės (METAR, TAF).

turimą stotys yra geltonos ir raudonos taškus žemėlapyje.

Perkelti pele per norėdami pamatyti stoties vardą.

Tada spustelėkite, norėdami matyti oro stebėjimo ir prognozės.

Norėdami pakeisti žemėlapį: spustelėkite ant žalios mygtukų su juodo kryžiaus žemyn,; žalią mygtuką su brūkšneliu, jei norite nutolinti; arba žalių rodyklių gretimoms žemėlapius.


METAR-TAF: